Time;durP1;ratioP1;P1;durP2;ratioP2;P2;SDS_P1;SDS_P2;PMS_P1;PMS_P2;Temp;Humidity;BMP_temperature;BMP_pressure;BME280_temperature;BME280_humidity;BME280_pressure;Samples;Min_cycle;Max_cycle;Signal;HPM_P1;HPM_P2
2021/06/28 00:00:21;;;;;;;4.60;1.60;;;26.70;42.10;;;;;;6299327;28;20029;-74
2021/06/28 00:03:22;;;;;;;2.00;1.42;;;26.70;42.30;;;;;;6308874;28;20043;-74
2021/06/28 00:06:23;;;;;;;1.58;1.48;;;26.60;42.20;;;;;;6306859;28;20067;-74
2021/06/28 00:09:24;;;;;;;1.75;1.30;;;26.60;42.20;;;;;;6324397;28;20117;-74
2021/06/28 00:12:26;;;;;;;2.97;1.50;;;26.50;42.30;;;;;;6310855;28;20033;-74
2021/06/28 00:15:31;;;;;;;2.03;1.50;;;26.50;42.40;;;;;;6291610;28;20343;-73
2021/06/28 00:18:33;;;;;;;2.30;1.52;;;26.50;42.40;;;;;;6273854;28;20036;-74
2021/06/28 00:21:38;;;;;;;3.35;1.65;;;26.50;42.40;;;;;;6274024;28;20037;-74
2021/06/28 00:24:39;;;;;;;4.72;1.88;;;26.50;42.40;;;;;;6299603;28;20056;-74
2021/06/28 00:27:41;;;;;;;3.13;1.80;;;26.50;42.40;;;;;;6281748;28;20485;-74
2021/06/28 00:30:44;;;;;;;9.20;1.38;;;26.50;42.40;;;;;;6281750;28;20111;-74
2021/06/28 00:33:45;;;;;;;1.80;1.45;;;26.50;42.50;;;;;;6279116;28;20052;-74
2021/06/28 00:36:46;;;;;;;3.33;1.60;;;26.50;42.50;;;;;;6307024;28;20119;-74
2021/06/28 00:39:47;;;;;;;9.15;1.98;;;26.40;42.50;;;;;;6323732;28;20032;-74
2021/06/28 00:42:49;;;;;;;2.78;1.45;;;26.40;42.60;;;;;;6292503;28;20173;-74
2021/06/28 00:45:50;;;;;;;1.85;1.63;;;26.50;42.60;;;;;;6297892;28;20420;-74
2021/06/28 00:48:52;;;;;;;6.72;1.58;;;26.40;42.60;;;;;;6290509;28;20440;-74
2021/06/28 00:51:56;;;;;;;5.22;1.88;;;26.40;42.70;;;;;;6297099;28;20040;-73
2021/06/28 00:54:57;;;;;;;3.42;2.05;;;26.40;42.70;;;;;;6298295;28;20040;-74
2021/06/28 00:57:59;;;;;;;1.98;1.50;;;26.40;42.70;;;;;;6298493;28;20051;-74
2021/06/28 01:01:02;;;;;;;2.17;1.30;;;26.40;43.00;;;;;;6297915;28;20040;-74
2021/06/28 01:04:04;;;;;;;2.65;1.70;;;26.30;43.00;;;;;;6314903;28;20043;-74
2021/06/28 01:07:05;;;;;;;5.50;1.70;;;26.30;43.10;;;;;;6306063;28;20093;-74
2021/06/28 01:10:07;;;;;;;5.10;1.70;;;26.30;43.20;;;;;;6322725;28;20038;-74
2021/06/28 01:13:09;;;;;;;4.53;2.28;;;26.20;43.20;;;;;;6323341;28;20093;-74
2021/06/28 01:16:10;;;;;;;4.65;2.10;;;26.20;43.30;;;;;;6322399;28;20036;-74
2021/06/28 01:19:14;;;;;;;2.38;2.03;;;26.20;43.70;;;;;;6306435;28;20043;-74
2021/06/28 01:22:18;;;;;;;2.33;1.98;;;26.20;44.30;;;;;;6302346;28;20045;-73
2021/06/28 01:25:22;;;;;;;3.35;1.70;;;26.10;44.70;;;;;;6297879;28;20044;-74
2021/06/28 01:28:25;;;;;;;3.25;1.80;;;26.10;44.70;;;;;;6297450;28;20048;-74
2021/06/28 01:31:26;;;;;;;3.05;2.15;;;26.10;44.70;;;;;;6297602;28;20458;-74
2021/06/28 01:34:27;;;;;;;2.55;1.90;;;26.10;44.70;;;;;;6317986;28;20098;-74
2021/06/28 01:37:29;;;;;;;2.17;1.90;;;26.10;44.80;;;;;;6287522;28;20036;-74
2021/06/28 01:40:31;;;;;;;3.05;1.83;;;26.00;44.90;;;;;;6273531;28;20029;-74
2021/06/28 01:43:32;;;;;;;5.03;2.28;;;26.00;45.10;;;;;;6273650;28;20033;-74
2021/06/28 01:46:33;;;;;;;5.70;2.40;;;25.90;45.20;;;;;;6273655;28;20472;-74
2021/06/28 01:53:32;;;;;;;3.72;2.13;;;25.80;46.00;;;;;;6266786;28;20033;-74
2021/06/28 01:56:33;;;;;;;3.42;1.83;;;25.80;46.10;;;;;;6271684;28;20033;-74
2021/06/28 01:59:37;;;;;;;2.65;2.10;;;25.70;46.40;;;;;;6309866;28;20466;-74
2021/06/28 02:02:38;;;;;;;3.53;1.98;;;25.70;46.40;;;;;;6299821;28;20123;-74
2021/06/28 02:05:52;;;;;;;7.35;1.75;;;25.60;46.50;;;;;;6319599;28;20040;-74
2021/06/28 02:08:53;;;;;;;5.88;2.40;;;25.60;46.50;;;;;;6317669;28;20119;-74
2021/06/28 02:11:54;;;;;;;5.93;2.20;;;25.50;46.50;;;;;;6317879;28;20038;-73
2021/06/28 02:14:55;;;;;;;6.35;2.00;;;25.50;46.70;;;;;;6315500;28;20035;-74
2021/06/28 02:17:58;;;;;;;5.30;1.90;;;25.40;46.90;;;;;;6306916;28;20032;-74
2021/06/28 02:21:01;;;;;;;3.67;1.83;;;25.40;47.20;;;;;;6325512;28;20032;-74
2021/06/28 02:24:02;;;;;;;2.53;1.75;;;25.40;47.30;;;;;;6263230;28;20036;-75
2021/06/28 02:27:04;;;;;;;5.25;2.10;;;25.30;47.40;;;;;;6273693;28;20044;-74
2021/06/28 02:30:08;;;;;;;5.15;2.17;;;25.20;47.70;;;;;;6274359;28;20501;-74
2021/06/28 02:33:09;;;;;;;3.65;2.28;;;25.10;47.80;;;;;;6275081;28;20173;-74
2021/06/28 02:36:11;;;;;;;4.60;1.77;;;25.10;48.10;;;;;;6324342;28;20368;-74
2021/06/28 02:39:12;;;;;;;2.90;2.10;;;25.00;48.10;;;;;;6322809;28;20527;-74
2021/06/28 02:42:14;;;;;;;3.10;1.85;;;25.00;48.40;;;;;;6333955;28;20028;-75
2021/06/28 02:45:15;;;;;;;2.78;2.00;;;24.90;48.80;;;;;;6326434;28;20032;-74
2021/06/28 02:48:17;;;;;;;4.97;2.00;;;24.80;49.00;;;;;;6302136;28;20037;-74
2021/06/28 02:51:18;;;;;;;5.88;1.95;;;24.70;49.10;;;;;;6300759;28;20037;-74
2021/06/28 02:54:19;;;;;;;4.03;1.88;;;24.60;49.20;;;;;;6299729;28;20040;-74
2021/06/28 02:57:20;;;;;;;7.47;1.80;;;24.50;49.30;;;;;;6301032;28;20032;-74
2021/06/28 03:00:21;;;;;;;2.80;1.42;;;24.50;49.30;;;;;;6300951;28;20097;-74
2021/06/28 03:03:23;;;;;;;4.15;1.60;;;24.50;49.30;;;;;;6326390;28;20038;-74
2021/06/28 03:06:24;;;;;;;2.95;1.70;;;24.50;49.20;;;;;;6324442;28;20369;-74
2021/06/28 03:09:25;;;;;;;2.40;1.63;;;24.50;49.20;;;;;;6307535;28;20412;-74
2021/06/28 03:12:26;;;;;;;6.95;2.20;;;24.50;49.20;;;;;;6293775;28;20032;-74
2021/06/28 03:15:28;;;;;;;2.53;1.98;;;24.40;49.30;;;;;;6301370;28;20123;-74
2021/06/28 03:18:30;;;;;;;2.13;1.60;;;24.30;49.50;;;;;;6287376;28;20048;-75
2021/06/28 03:21:31;;;;;;;3.38;1.70;;;24.30;49.70;;;;;;6304020;28;20123;-74
2021/06/28 03:24:33;;;;;;;5.50;2.25;;;24.20;49.70;;;;;;6301967;28;20044;-74
2021/06/28 03:27:35;;;;;;;4.40;1.98;;;24.20;49.70;;;;;;6303554;28;20036;-74
2021/06/28 03:30:37;;;;;;;2.40;1.85;;;24.10;49.60;;;;;;6302382;28;20065;-74
2021/06/28 03:33:38;;;;;;;3.55;2.08;;;24.10;49.60;;;;;;6314053;28;20047;-74
2021/06/28 03:36:41;;;;;;;3.10;2.00;;;24.10;49.60;;;;;;6310942;28;20032;-74
2021/06/28 03:39:42;;;;;;;3.78;2.30;;;24.00;49.90;;;;;;6323567;28;20028;-74
2021/06/28 03:42:44;;;;;;;6.90;2.17;;;24.00;50.20;;;;;;6289259;28;20115;-74
2021/06/28 03:45:46;;;;;;;4.60;2.20;;;24.00;50.70;;;;;;6298984;28;20044;-74
2021/06/28 03:48:48;;;;;;;3.40;2.08;;;24.00;51.10;;;;;;6298629;28;20036;-73
2021/06/28 03:51:49;;;;;;;11.00;2.00;;;24.10;51.10;;;;;;6273328;28;20029;-73
2021/06/28 03:54:50;;;;;;;5.78;1.98;;;24.10;51.00;;;;;;6282182;28;20040;-73
2021/06/28 03:57:52;;;;;;;4.10;2.17;;;24.10;50.70;;;;;;6277705;28;20124;-73
2021/06/28 04:00:53;;;;;;;3.63;2.20;;;24.10;51.00;;;;;;6274662;28;20045;-73
2021/06/28 04:03:55;;;;;;;4.15;1.88;;;24.10;50.10;;;;;;6289271;28;20051;-73
2021/06/28 04:06:56;;;;;;;5.40;2.15;;;24.20;50.60;;;;;;6320012;28;20040;-74
2021/06/28 04:09:58;;;;;;;4.30;2.40;;;24.20;49.90;;;;;;6297217;28;20040;-73
2021/06/28 04:12:59;;;;;;;6.53;2.40;;;24.20;49.80;;;;;;6298136;28;20033;-73
2021/06/28 04:16:00;;;;;;;6.63;2.25;;;24.20;49.80;;;;;;6298572;28;20062;-73
2021/06/28 04:19:02;;;;;;;6.07;2.47;;;24.30;49.90;;;;;;6298072;28;20035;-73
2021/06/28 04:22:03;;;;;;;8.63;2.70;;;24.20;49.90;;;;;;6297184;28;20128;-75
2021/06/28 04:25:07;;;;;;;4.05;2.30;;;24.20;49.80;;;;;;6297527;28;20047;-73
2021/06/28 04:28:09;;;;;;;3.85;2.00;;;24.20;49.80;;;;;;6297797;28;20035;-73
2021/06/28 04:31:10;;;;;;;6.40;2.13;;;24.30;49.90;;;;;;6298052;28;20480;-73
2021/06/28 04:34:12;;;;;;;9.18;2.45;;;24.30;49.80;;;;;;6273357;28;20442;-73
2021/06/28 04:37:13;;;;;;;3.15;2.38;;;24.30;49.80;;;;;;6257712;28;20098;-73
2021/06/28 04:40:18;;;;;;;5.22;2.40;;;24.40;49.80;;;;;;6271716;28;20041;-73
2021/06/28 04:43:19;;;;;;;4.18;2.10;;;24.40;49.70;;;;;;6259808;28;20036;-73
2021/06/28 04:46:20;;;;;;;7.93;2.40;;;24.40;49.60;;;;;;6301282;28;20527;-74
2021/06/28 04:49:21;;;;;;;4.60;2.17;;;24.40;49.70;;;;;;6280348;28;20024;-73
2021/06/28 04:52:22;;;;;;;8.90;2.50;;;24.50;49.70;;;;;;6293634;28;20024;-75
2021/06/28 04:55:25;;;;;;;10.02;2.20;;;24.50;49.60;;;;;;6295723;28;20036;-74
2021/06/28 04:58:26;;;;;;;4.95;2.17;;;24.50;49.40;;;;;;6295644;28;20119;-74
2021/06/28 05:01:27;;;;;;;11.02;2.97;;;24.50;49.30;;;;;;6313390;28;20465;-73
2021/06/28 05:04:29;;;;;;;6.97;2.08;;;24.50;49.20;;;;;;6317600;28;20055;-73
2021/06/28 05:07:31;;;;;;;3.50;1.90;;;24.60;49.10;;;;;;6321338;28;20039;-73
2021/06/28 05:10:33;;;;;;;2.60;2.33;;;24.70;49.00;;;;;;6263977;28;20033;-73
2021/06/28 05:13:34;;;;;;;11.80;2.40;;;24.70;48.90;;;;;;6262642;28;20068;-75
2021/06/28 05:16:35;;;;;;;7.30;2.40;;;24.70;48.90;;;;;;6271345;28;20033;-73
2021/06/28 05:19:37;;;;;;;5.55;2.35;;;24.80;49.00;;;;;;6296777;28;20033;-73
2021/06/28 05:22:40;;;;;;;5.72;2.42;;;24.90;48.90;;;;;;6295988;28;20048;-73
2021/06/28 05:25:42;;;;;;;15.32;2.08;;;25.00;48.90;;;;;;6296255;28;20082;-74
2021/06/28 05:28:43;;;;;;;3.22;2.30;;;25.00;48.70;;;;;;6271623;28;20118;-74
2021/06/28 05:31:44;;;;;;;7.28;2.40;;;25.10;48.70;;;;;;6287111;28;20052;-74
2021/06/28 05:34:46;;;;;;;6.32;2.42;;;25.20;48.60;;;;;;6318813;28;20045;-74
2021/06/28 05:37:47;;;;;;;14.77;2.85;;;25.20;48.40;;;;;;6321629;28;20028;-74
2021/06/28 05:40:48;;;;;;;3.70;2.38;;;25.30;48.30;;;;;;6320864;28;20115;-74
2021/06/28 05:43:49;;;;;;;6.68;2.40;;;25.40;48.20;;;;;;6302752;28;20115;-73
2021/06/28 05:46:50;;;;;;;7.20;2.28;;;25.50;48.10;;;;;;6304307;28;20040;-73
2021/06/28 05:49:52;;;;;;;6.07;2.58;;;25.60;48.00;;;;;;6321924;28;20024;-73
2021/06/28 05:52:56;;;;;;;8.70;2.55;;;25.70;47.90;;;;;;6314099;28;20083;-74
2021/06/28 05:55:58;;;;;;;5.40;2.65;;;25.80;47.70;;;;;;6301045;28;20056;-74
2021/06/28 05:58:59;;;;;;;4.80;3.03;;;25.80;47.60;;;;;;6283981;28;20102;-74
2021/06/28 06:02:02;;;;;;;6.35;2.60;;;25.90;47.50;;;;;;6283566;28;20341;-74
2021/06/28 06:05:08;;;;;;;6.63;2.65;;;26.00;47.40;;;;;;6275616;28;20545;-74
2021/06/28 06:08:10;;;;;;;7.30;2.70;;;26.00;47.20;;;;;;6276301;28;20037;-73
2021/06/28 06:11:15;;;;;;;8.23;2.28;;;26.20;47.10;;;;;;6276310;28;20083;-74
2021/06/28 06:14:16;;;;;;;5.03;2.78;;;26.30;46.90;;;;;;6275740;28;20116;-74
2021/06/28 06:17:17;;;;;;;3.28;2.28;;;26.40;46.50;;;;;;6275353;28;20108;-73
2021/06/28 06:20:19;;;;;;;4.00;2.80;;;26.60;46.30;;;;;;6288776;28;20029;-73
2021/06/28 06:23:21;;;;;;;5.20;2.58;;;26.60;46.10;;;;;;6288494;28;20047;-75
2021/06/28 06:26:23;;;;;;;3.28;2.25;;;26.70;46.10;;;;;;6298832;28;20040;-73
2021/06/28 06:29:27;;;;;;;4.88;2.25;;;26.80;45.70;;;;;;6299587;28;20029;-74
2021/06/28 06:32:28;;;;;;;4.13;2.50;;;26.90;45.50;;;;;;6302027;28;20093;-73
2021/06/28 06:35:29;;;;;;;9.52;2.30;;;26.90;45.30;;;;;;6324000;28;20469;-74
2021/06/28 06:38:31;;;;;;;6.03;2.47;;;26.80;45.10;;;;;;6324309;28;20032;-74
2021/06/28 06:41:32;;;;;;;2.88;2.03;;;26.70;45.10;;;;;;6306236;28;20032;-74
2021/06/28 06:44:34;;;;;;;5.13;2.00;;;26.70;45.20;;;;;;6292660;28;20041;-74
2021/06/28 06:47:35;;;;;;;6.45;2.70;;;26.60;45.20;;;;;;6263535;28;20461;-74
2021/06/28 06:50:38;;;;;;;9.43;2.40;;;26.70;45.20;;;;;;6297304;28;20044;-74
2021/06/28 06:53:40;;;;;;;7.35;2.55;;;26.80;45.00;;;;;;6260358;28;20054;-74
2021/06/28 06:56:41;;;;;;;8.32;3.65;;;27.00;44.90;;;;;;6277149;28;20062;-73
2021/06/28 06:59:42;;;;;;;10.40;2.45;;;27.20;44.70;;;;;;6299139;28;20041;-74
2021/06/28 07:02:44;;;;;;;4.43;2.42;;;27.20;44.20;;;;;;6302626;28;20505;-73
2021/06/28 07:05:46;;;;;;;5.38;2.15;;;27.50;44.00;;;;;;6323845;28;20040;-73
2021/06/28 07:08:47;;;;;;;3.78;2.30;;;27.80;43.40;;;;;;6321412;28;20472;-74
2021/06/28 07:11:49;;;;;;;3.55;2.13;;;28.00;42.90;;;;;;6323313;28;20032;-74
2021/06/28 07:14:50;;;;;;;3.72;2.03;;;28.30;42.50;;;;;;6323364;28;20039;-74
2021/06/28 07:17:52;;;;;;;4.43;2.05;;;28.60;42.00;;;;;;6318822;28;20035;-74
2021/06/28 07:20:54;;;;;;;6.13;2.40;;;28.80;41.40;;;;;;6317287;28;20036;-74
2021/06/28 07:23:56;;;;;;;3.33;2.03;;;28.90;40.90;;;;;;6263684;28;20470;-74
2021/06/28 07:26:58;;;;;;;8.13;2.20;;;28.90;40.70;;;;;;6281397;28;20036;-75
2021/06/28 07:30:00;;;;;;;7.35;2.33;;;28.80;40.50;;;;;;6281469;28;20094;-75
2021/06/28 07:33:01;;;;;;;4.40;2.08;;;28.70;40.50;;;;;;6294303;28;20389;-74
2021/06/28 07:36:02;;;;;;;7.45;2.15;;;28.70;40.80;;;;;;6322715;28;20166;-75
2021/06/28 07:39:04;;;;;;;3.55;2.00;;;28.70;41.00;;;;;;6306067;28;20047;-74
2021/06/28 07:42:05;;;;;;;5.70;2.05;;;28.60;41.00;;;;;;6289687;28;20056;-74
2021/06/28 07:45:08;;;;;;;3.10;1.90;;;28.60;41.00;;;;;;6314575;28;20025;-74
2021/06/28 07:48:09;;;;;;;1.90;1.60;;;28.50;40.90;;;;;;6297890;28;20044;-73
2021/06/28 07:51:10;;;;;;;3.88;1.88;;;28.40;41.00;;;;;;6295570;28;20449;-74
2021/06/28 07:54:15;;;;;;;8.18;2.10;;;28.30;40.90;;;;;;6294207;28;20057;-74
2021/06/28 07:57:16;;;;;;;10.73;2.08;;;28.30;40.80;;;;;;6271982;28;20044;-74
2021/06/28 08:00:19;;;;;;;6.40;1.75;;;28.30;40.80;;;;;;6272002;28;20025;-74
2021/06/28 08:03:20;;;;;;;7.43;1.83;;;28.30;40.80;;;;;;6296191;28;20040;-75
2021/06/28 08:06:21;;;;;;;7.30;2.60;;;28.40;40.70;;;;;;6293573;28;20033;-73
2021/06/28 08:09:23;;;;;;;3.25;1.63;;;28.60;40.10;;;;;;6297612;28;20036;-74
2021/06/28 08:12:24;;;;;;;3.00;1.50;;;28.80;39.50;;;;;;6282649;28;20036;-74
2021/06/28 08:15:25;;;;;;;5.72;1.88;;;29.00;39.20;;;;;;6271402;28;20415;-74
2021/06/28 08:18:27;;;;;;;2.70;1.50;;;29.10;38.90;;;;;;6268413;28;20048;-74
2021/06/28 08:21:28;;;;;;;5.68;1.65;;;29.20;38.40;;;;;;6280750;28;20044;-74
2021/06/28 08:24:30;;;;;;;9.70;1.70;;;29.40;38.20;;;;;;6296186;28;20044;-75
2021/06/28 08:27:31;;;;;;;4.90;1.58;;;29.50;37.80;;;;;;6297025;28;20119;-75
2021/06/28 08:30:32;;;;;;;8.32;1.80;;;29.40;37.70;;;;;;6312408;28;20120;-74
2021/06/28 08:33:35;;;;;;;9.00;1.30;;;29.30;37.70;;;;;;6324359;28;20068;-75
2021/06/28 08:36:36;;;;;;;4.10;1.40;;;29.40;37.80;;;;;;6322062;28;20333;-74
2021/06/28 08:39:38;;;;;;;3.92;1.65;;;29.50;37.60;;;;;;6274888;28;20040;-74
2021/06/28 08:42:39;;;;;;;4.78;1.60;;;29.40;37.30;;;;;;6279653;28;20117;-75
2021/06/28 08:45:43;;;;;;;4.55;1.55;;;29.50;37.30;;;;;;6296506;28;20029;-76
2021/06/28 08:48:46;;;;;;;4.38;2.15;;;29.50;37.10;;;;;;6296540;28;20047;-74
2021/06/28 08:51:50;;;;;;;10.23;1.70;;;29.60;36.90;;;;;;6275875;28;20111;-74
2021/06/28 08:54:53;;;;;;;8.40;1.85;;;29.60;37.00;;;;;;6295946;28;20461;-74
2021/06/28 08:57:54;;;;;;;2.28;1.33;;;29.70;36.90;;;;;;6295013;28;20036;-74
2021/06/28 09:00:56;;;;;;;3.97;1.63;;;29.80;36.60;;;;;;6279211;28;20029;-75
2021/06/28 09:03:57;;;;;;;6.13;1.73;;;29.90;36.20;;;;;;6312668;28;20032;-75
2021/06/28 09:07:18;;;;;;;2.63;1.60;;;30.10;35.80;;;;;;6286449;28;20032;-74
2021/06/28 09:10:38;;;;;;;4.82;1.30;;;30.20;34.80;;;;;;6314941;28;20427;-74
2021/06/28 09:13:42;;;;;;;2.97;1.23;;;30.30;34.40;;;;;;6314328;28;20032;-74
2021/06/28 09:16:46;;;;;;;6.05;1.52;;;30.40;34.10;;;;;;6311415;28;20028;-74
2021/06/28 09:20:12;;;;;;;4.10;1.45;;;30.50;34.10;;;;;;6293025;28;20101;-75
2021/06/28 09:23:24;;;;;;;1.73;1.35;;;30.50;34.20;;;;;;6273739;28;20043;-74
2021/06/28 09:26:36;;;;;;;2.00;1.45;;;30.60;33.90;;;;;;6289554;28;20032;-74
2021/06/28 09:29:45;;;;;;;4.30;1.67;;;30.70;33.80;;;;;;6306963;28;20033;-74
2021/06/28 09:33:05;;;;;;;6.55;1.77;;;30.80;33.80;;;;;;6298063;28;20043;-74
2021/06/28 09:36:22;;;;;;;3.97;1.77;;;30.90;34.20;;;;;;6320076;28;20040;-74
2021/06/28 09:39:37;;;;;;;6.15;1.60;;;30.90;34.10;;;;;;6318898;28;20404;-74
2021/06/28 09:42:39;;;;;;;4.38;1.55;;;30.90;34.20;;;;;;6304459;28;20040;-74
2021/06/28 09:45:41;;;;;;;2.92;1.48;;;30.80;34.30;;;;;;6293956;28;20037;-75
2021/06/28 09:48:50;;;;;;;13.13;1.67;;;30.90;34.40;;;;;;6293372;28;20123;-74
2021/06/28 09:51:51;;;;;;;3.10;1.50;;;30.90;34.40;;;;;;6293823;28;20108;-75
2021/06/28 09:54:52;;;;;;;2.40;1.45;;;31.10;34.40;;;;;;6293146;28;20040;-76
2021/06/28 09:58:06;;;;;;;6.80;1.83;;;31.20;34.30;;;;;;6294884;28;20361;-74
2021/06/28 10:01:07;;;;;;;2.75;1.52;;;31.20;34.30;;;;;;6284237;28;20460;-75
2021/06/28 10:04:08;;;;;;;6.70;1.50;;;31.20;34.40;;;;;;6324252;28;20043;-74
2021/06/28 10:07:21;;;;;;;2.80;1.77;;;31.10;34.50;;;;;;6318560;28;20039;-75
2021/06/28 10:10:25;;;;;;;5.72;1.45;;;31.10;35.00;;;;;;6314460;28;20028;-73
2021/06/28 10:13:26;;;;;;;1.77;1.60;;;31.00;35.30;;;;;;6317750;28;20040;-74
2021/06/28 10:16:30;;;;;;;2.08;1.80;;;30.90;35.50;;;;;;6314815;28;20568;-74
2021/06/28 10:19:31;;;;;;;2.45;1.92;;;30.80;35.70;;;;;;6301005;28;20073;-74
2021/06/28 10:22:35;;;;;;;6.82;1.63;;;30.80;35.80;;;;;;6317015;28;20382;-74
2021/06/28 10:25:38;;;;;;;3.00;1.88;;;30.80;36.00;;;;;;6293890;28;20369;-74
2021/06/28 10:28:40;;;;;;;5.38;1.77;;;30.80;36.00;;;;;;6292724;28;20040;-74
2021/06/28 10:31:42;;;;;;;2.40;1.60;;;30.90;35.90;;;;;;6292347;28;20120;-74
2021/06/28 10:34:50;;;;;;;2.03;1.85;;;31.00;35.70;;;;;;6292404;28;20085;-76
2021/06/28 10:37:52;;;;;;;3.03;1.17;;;31.10;35.40;;;;;;6319430;28;20028;-73
2021/06/28 10:40:57;;;;;;;12.10;1.83;;;31.20;35.30;;;;;;6304499;28;20176;-74
2021/06/28 10:43:59;;;;;;;3.63;1.42;;;31.30;35.10;;;;;;6321210;28;20036;-74
2021/06/28 10:47:08;;;;;;;6.38;1.90;;;31.40;34.60;;;;;;6312071;28;20067;-75
2021/06/28 10:50:10;;;;;;;5.28;1.50;;;31.40;34.60;;;;;;6293064;28;20357;-74
2021/06/28 10:53:11;;;;;;;2.22;1.60;;;31.50;34.50;;;;;;6295104;28;20052;-73
2021/06/28 10:56:32;;;;;;;3.28;1.77;;;31.60;34.50;;;;;;6291809;28;20044;-74
2021/06/28 10:59:44;;;;;;;1.60;1.50;;;31.50;34.70;;;;;;6269339;28;20091;-74
2021/06/28 11:02:46;;;;;;;9.35;1.90;;;31.50;35.00;;;;;;6295328;28;20032;-74
2021/06/28 11:06:13;;;;;;;3.75;1.92;;;31.50;35.10;;;;;;6302021;28;20495;-73
2021/06/28 11:09:15;;;;;;;2.40;1.73;;;31.50;35.30;;;;;;6282166;28;20032;-75
2021/06/28 11:12:20;;;;;;;2.85;2.28;;;31.90;34.90;;;;;;6312063;28;20035;-75
2021/06/28 11:15:23;;;;;;;3.15;1.80;;;32.50;34.50;;;;;;6295013;28;20424;-74
2021/06/28 11:18:30;;;;;;;8.55;2.70;;;32.70;34.30;;;;;;6293439;28;20036;-74
2021/06/28 11:21:38;;;;;;;7.80;1.98;;;32.70;34.50;;;;;;6293469;28;20567;-75
2021/06/28 11:24:40;;;;;;;6.93;1.73;;;32.60;34.70;;;;;;6293331;28;20043;-75
2021/06/28 11:27:48;;;;;;;3.65;2.03;;;32.60;34.70;;;;;;6295986;28;20043;-74
2021/06/28 11:30:52;;;;;;;5.80;3.00;;;32.50;34.40;;;;;;6295065;28;20040;-74
2021/06/28 11:33:55;;;;;;;6.55;2.03;;;32.70;34.50;;;;;;6295517;28;20143;-73
2021/06/28 11:37:02;;;;;;;4.60;1.70;;;33.20;33.70;;;;;;6274815;28;20079;-74
2021/06/28 11:40:06;;;;;;;6.10;2.03;;;33.90;33.10;;;;;;6253640;28;20025;-75
2021/06/28 11:43:08;;;;;;;3.28;1.95;;;34.60;31.90;;;;;;6288143;28;20028;-75
2021/06/28 11:46:16;;;;;;;2.15;1.77;;;34.80;31.70;;;;;;6295950;28;20032;-74
2021/06/28 11:49:25;;;;;;;3.03;1.88;;;34.80;31.30;;;;;;6294501;28;20037;-74
2021/06/28 11:52:29;;;;;;;5.10;2.17;;;34.30;32.30;;;;;;6295351;28;20033;-74
2021/06/28 11:55:31;;;;;;;3.40;1.95;;;33.80;33.10;;;;;;6295534;28;20048;-74
2021/06/28 11:58:34;;;;;;;8.32;2.17;;;33.40;33.80;;;;;;6295874;28;20029;-74
2021/06/28 12:01:37;;;;;;;3.22;1.52;;;33.20;34.10;;;;;;6297126;28;20040;-74
2021/06/28 12:04:39;;;;;;;3.08;2.15;;;33.20;33.50;;;;;;6315434;28;20438;-74
2021/06/28 12:07:50;;;;;;;2.20;2.00;;;33.30;33.20;;;;;;6320937;28;20459;-74
2021/06/28 12:10:59;;;;;;;4.00;2.03;;;33.90;32.90;;;;;;6320439;28;20036;-75
2021/06/28 12:14:00;;;;;;;2.78;1.70;;;34.70;32.00;;;;;;6295011;28;20097;-73
2021/06/28 12:17:09;;;;;;;2.85;1.90;;;35.10;30.60;;;;;;6320908;28;20042;-74
2021/06/28 12:20:15;;;;;;;5.43;1.92;;;35.30;29.80;;;;;;6319215;28;20074;-74
2021/06/28 12:23:18;;;;;;;11.88;2.63;;;35.70;29.00;;;;;;6297154;28;20055;-75
2021/06/28 12:26:19;;;;;;;2.78;1.70;;;35.40;29.00;;;;;;6310332;28;20111;-74
2021/06/28 12:29:51;;;;;;;4.63;1.77;;;35.00;29.30;;;;;;6292116;28;20068;-74
2021/06/28 12:32:59;;;;;;;3.65;1.60;;;34.50;30.00;;;;;;6216300;28;20047;-75
2021/06/28 12:36:00;;;;;;;4.55;1.65;;;34.20;30.30;;;;;;6243291;28;20034;-74
2021/06/28 12:39:02;;;;;;;3.10;1.67;;;33.80;30.40;;;;;;6227536;28;20053;-74
2021/06/28 12:42:17;;;;;;;5.43;1.85;;;33.50;31.00;;;;;;6209909;28;20041;-76
2021/06/28 12:45:22;;;;;;;2.70;1.70;;;33.10;31.90;;;;;;6227053;28;20089;-74
2021/06/28 12:48:26;;;;;;;4.68;1.90;;;32.80;32.60;;;;;;6242727;28;20048;-74
2021/06/28 12:51:27;;;;;;;6.10;2.08;;;32.60;33.00;;;;;;6222988;28;20041;-73
2021/06/28 12:54:29;;;;;;;6.40;2.00;;;32.40;33.10;;;;;;6211403;28;20034;-75
2021/06/28 12:57:31;;;;;;;7.18;1.67;;;32.40;33.20;;;;;;6226829;28;20458;-75
2021/06/28 13:00:35;;;;;;;6.20;2.03;;;32.40;33.40;;;;;;6227338;28;20044;-75
2021/06/28 13:03:37;;;;;;;7.57;2.10;;;32.30;33.40;;;;;;6245365;28;20074;-76
2021/06/28 13:06:38;;;;;;;5.13;2.00;;;32.30;33.60;;;;;;6247639;28;20040;-74
2021/06/28 13:09:39;;;;;;;11.35;2.60;;;32.20;33.90;;;;;;6283733;28;20553;-74
2021/06/28 13:12:41;;;;;;;4.00;1.90;;;32.10;34.30;;;;;;6278042;28;20029;-74
2021/06/28 13:15:51;;;;;;;2.83;1.67;;;32.00;34.60;;;;;;6294938;28;20354;-74
2021/06/28 13:19:10;;;;;;;4.72;1.70;;;32.00;34.70;;;;;;6294190;28;20067;-74
2021/06/28 13:22:12;;;;;;;4.90;1.92;;;31.90;35.00;;;;;;6277369;28;20108;-73
2021/06/28 13:25:22;;;;;;;5.20;1.77;;;31.90;35.20;;;;;;6277412;28;20122;-75
2021/06/28 13:28:23;;;;;;;3.28;1.77;;;31.80;35.40;;;;;;6292503;28;20472;-75
2021/06/28 13:31:26;;;;;;;6.57;1.98;;;31.80;35.60;;;;;;6292979;28;20035;-75
2021/06/28 13:34:37;;;;;;;4.65;1.63;;;31.80;35.70;;;;;;6329963;28;20040;-75
2021/06/28 13:37:42;;;;;;;5.70;1.80;;;31.70;35.70;;;;;;6319410;28;20048;-75
2021/06/28 13:40:54;;;;;;;7.25;1.92;;;31.60;35.70;;;;;;6314542;28;20447;-75
2021/06/28 13:44:09;;;;;;;2.88;1.90;;;31.50;35.80;;;;;;6319237;28;20031;-73
2021/06/28 13:47:11;;;;;;;7.72;1.90;;;31.50;35.70;;;;;;6301718;28;20413;-75
2021/06/28 13:50:14;;;;;;;6.57;1.73;;;31.60;35.70;;;;;;6319510;28;20115;-75
2021/06/28 13:53:16;;;;;;;4.82;1.67;;;31.60;35.60;;;;;;6320404;28;20035;-75
2021/06/28 13:56:17;;;;;;;2.83;2.00;;;31.70;35.40;;;;;;6309346;28;20457;-75
2021/06/28 13:59:23;;;;;;;10.35;2.03;;;31.90;34.70;;;;;;6308436;28;20044;-75
2021/06/28 14:02:24;;;;;;;4.50;1.90;;;32.30;34.30;;;;;;6279046;28;20024;-74
2021/06/28 14:05:25;;;;;;;2.33;1.80;;;32.90;33.40;;;;;;6319000;28;20115;-75
2021/06/28 14:08:27;;;;;;;3.53;2.03;;;33.40;32.70;;;;;;6316567;28;20039;-74
2021/06/28 14:11:28;;;;;;;3.15;1.73;;;33.40;32.70;;;;;;6286611;28;20089;-74
2021/06/28 14:14:30;;;;;;;5.72;1.85;;;33.20;33.20;;;;;;6304533;28;20450;-74
2021/06/28 14:17:32;;;;;;;5.20;1.70;;;33.20;33.30;;;;;;6305794;28;20051;-74
2021/06/28 14:20:34;;;;;;;4.32;2.05;;;33.40;33.20;;;;;;6291580;28;20108;-74
2021/06/28 14:23:36;;;;;;;3.80;1.67;;;33.30;33.50;;;;;;6323182;28;20055;-74
2021/06/28 14:26:37;;;;;;;4.70;1.90;;;33.00;34.00;;;;;;6311197;28;20040;-74
2021/06/28 14:29:38;;;;;;;2.85;1.85;;;32.70;34.30;;;;;;6298503;28;20037;-74
2021/06/28 14:32:40;;;;;;;8.23;1.73;;;32.60;34.40;;;;;;6302760;28;20060;-74
2021/06/28 14:35:42;;;;;;;8.90;1.98;;;32.50;34.30;;;;;;6307728;28;20028;-74
2021/06/28 14:38:44;;;;;;;4.03;1.40;;;32.50;34.00;;;;;;6325019;28;20036;-74
2021/06/28 14:41:45;;;;;;;3.20;1.60;;;32.70;33.40;;;;;;6319580;28;20047;-74
2021/06/28 14:44:49;;;;;;;2.47;1.60;;;33.00;33.10;;;;;;6320592;28;20040;-74
2021/06/28 14:47:51;;;;;;;3.95;1.80;;;33.10;32.90;;;;;;6272643;28;20124;-74
2021/06/28 14:50:54;;;;;;;4.70;1.90;;;33.00;32.80;;;;;;6258515;28;20102;-73
2021/06/28 14:53:55;;;;;;;4.13;1.83;;;33.00;33.00;;;;;;6237074;28;20493;-74
2021/06/28 14:56:57;;;;;;;4.25;1.70;;;33.10;33.10;;;;;;6263321;28;20025;-74
2021/06/28 14:59:58;;;;;;;6.65;1.90;;;33.20;32.70;;;;;;6271026;28;20166;-74
2021/06/28 15:02:59;;;;;;;2.13;1.73;;;33.50;32.40;;;;;;6292551;28;20052;-76
2021/06/28 15:06:02;;;;;;;1.95;1.60;;;34.00;31.80;;;;;;6306675;28;20086;-76
2021/06/28 15:09:04;;;;;;;6.07;1.70;;;35.00;30.30;;;;;;6324272;28;20071;-75
2021/06/28 15:12:06;;;;;;;6.47;1.83;;;36.00;29.20;;;;;;6323520;28;20054;-73
2021/06/28 15:15:08;;;;;;;7.65;1.90;;;37.00;27.80;;;;;;6302212;28;20035;-75
2021/06/28 15:18:11;;;;;;;2.95;1.70;;;38.10;27.00;;;;;;6319755;28;20047;-75
2021/06/28 15:21:12;;;;;;;5.60;1.45;;;39.10;26.10;;;;;;6319741;28;20032;-75
2021/06/28 15:24:13;;;;;;;3.28;1.73;;;39.70;25.40;;;;;;6318671;28;20105;-74
2021/06/28 15:27:14;;;;;;;3.17;1.55;;;39.80;25.10;;;;;;6305293;28;20036;-74
2021/06/28 15:30:25;;;;;;;5.22;1.52;;;40.10;24.90;;;;;;6298201;28;20181;-74
2021/06/28 15:33:28;;;;;;;7.13;1.50;;;39.60;25.10;;;;;;6306128;28;20046;-73
2021/06/28 15:36:30;;;;;;;6.93;2.10;;;38.80;25.90;;;;;;6322759;28;20089;-74
2021/06/28 15:39:31;;;;;;;3.75;1.70;;;38.00;26.90;;;;;;6322438;28;20052;-75
2021/06/28 15:42:32;;;;;;;6.47;2.15;;;37.20;28.20;;;;;;6307933;28;20068;-74
2021/06/28 15:45:33;;;;;;;2.33;1.70;;;36.20;29.50;;;;;;6296309;28;20040;-74
2021/06/28 15:48:34;;;;;;;7.78;2.30;;;35.30;30.80;;;;;;6296292;28;20124;-74
2021/06/28 15:51:36;;;;;;;2.63;1.70;;;34.50;32.30;;;;;;6312716;28;20028;-74
2021/06/28 15:54:37;;;;;;;2.58;1.70;;;33.80;33.60;;;;;;6295840;28;20119;-74